createdAt,value
2019-04-03T04:00:59.778Z,89.36
2019-04-03T04:01:57.921Z,89.46
2019-04-03T04:02:58.096Z,89.65
2019-04-03T04:03:58.320Z,89.84
2019-04-03T04:04:58.441Z,90.22
2019-04-03T04:05:58.996Z,90.70
2019-04-03T04:07:02.225Z,90.79
2019-04-03T04:07:58.981Z,91.08
2019-04-03T04:08:59.126Z,90.98
2019-04-03T04:09:59.299Z,91.08
2019-04-03T04:10:59.982Z,91.55
2019-04-03T04:11:59.922Z,91.27
2019-04-03T04:13:00.006Z,91.17
2019-04-03T04:13:59.985Z,91.08
2019-04-03T04:15:00.161Z,90.31
2019-04-03T04:16:03.918Z,90.12
2019-04-03T04:17:00.503Z,90.60
2019-04-03T04:18:00.672Z,90.98
2019-04-03T04:19:01.012Z,90.98
2019-04-03T04:20:05.225Z,90.89
2019-04-03T04:21:01.639Z,90.60
2019-04-03T04:22:01.362Z,91.36
2019-04-03T04:23:01.826Z,90.79
2019-04-03T04:24:01.935Z,90.79
2019-04-03T04:25:01.970Z,90.60
2019-04-03T04:26:02.521Z,90.98
2019-04-03T04:27:03.202Z,91.17
2019-04-03T04:28:02.417Z,91.94
2019-04-03T04:29:02.583Z,92.13
2019-04-03T04:30:02.871Z,92.41
2019-04-03T04:31:02.925Z,91.94
2019-04-03T04:32:03.101Z,92.22
2019-04-03T04:33:03.271Z,92.13
2019-04-03T04:34:03.445Z,92.36
2019-04-03T04:35:03.649Z,91.55
2019-04-03T04:36:03.787Z,92.08
2019-04-03T04:37:04.030Z,92.36
2019-04-03T04:38:04.140Z,91.89
2019-04-03T04:39:04.326Z,92.94
2019-04-03T04:40:04.469Z,93.70
2019-04-03T04:41:04.818Z,93.79
2019-04-03T04:42:04.815Z,93.70
2019-04-03T04:43:07.458Z,93.51
2019-04-03T04:44:05.157Z,93.32
2019-04-03T04:45:05.332Z,92.84
2019-04-03T04:46:05.502Z,92.36
2019-04-03T04:47:05.674Z,92.36
2019-04-03T04:48:05.844Z,93.32
2019-04-03T04:49:06.027Z,93.41
2019-04-03T04:50:06.411Z,94.08
2019-04-03T04:51:06.373Z,93.60
2019-04-03T04:52:06.693Z,94.27
2019-04-03T04:53:06.716Z,95.22
2019-04-03T04:54:06.890Z,95.51
2019-04-03T04:55:07.061Z,95.79
2019-04-03T04:56:07.428Z,95.32
2019-04-03T04:57:08.888Z,95.98
2019-04-03T04:58:07.584Z,96.08
2019-04-03T04:59:07.918Z,96.32
2019-04-03T05:00:07.927Z,96.03
2019-04-03T05:01:08.102Z,95.89
2019-04-03T05:02:08.273Z,95.89
2019-04-03T05:03:08.738Z,95.60
2019-04-03T05:04:08.615Z,95.32
2019-04-03T05:05:09.215Z,95.51
2019-04-03T05:06:09.010Z,96.84
2019-04-03T05:07:09.337Z,97.70
2019-04-03T05:08:09.305Z,97.70
2019-04-03T05:09:09.476Z,97.70
2019-04-03T05:10:09.647Z,97.70
2019-04-03T05:11:09.819Z,98.27
2019-04-03T05:12:10.355Z,98.46
2019-04-03T05:13:10.161Z,97.70
2019-04-03T05:14:10.334Z,97.79
2019-04-03T05:15:10.506Z,98.27
2019-04-03T05:16:10.677Z,98.55
2019-04-03T05:17:10.980Z,98.55
2019-04-03T05:18:11.079Z,98.18
2019-04-03T05:19:17.895Z,97.70
2019-04-03T05:20:11.366Z,97.13
2019-04-03T05:21:11.536Z,98.27
2019-04-03T05:22:11.708Z,98.18
2019-04-03T05:23:11.879Z,98.08
2019-04-03T05:24:13.711Z,98.27
2019-04-03T05:25:12.227Z,98.46
2019-04-03T05:26:12.398Z,98.84
2019-04-03T05:27:12.571Z,98.27
2019-04-03T05:28:12.743Z,98.46
2019-04-03T05:29:12.914Z,97.70
2019-04-03T05:30:13.106Z,98.27
2019-04-03T05:31:13.279Z,98.94
2019-04-03T05:32:13.451Z,99.13
2019-04-03T05:33:13.679Z,99.79
2019-04-03T05:34:14.085Z,99.03
2019-04-03T05:35:14.942Z,98.84
2019-04-03T05:36:17.075Z,99.03
2019-04-03T05:37:14.315Z,99.69
2019-04-03T05:38:14.577Z,99.99
2019-04-03T05:39:14.743Z,99.99
2019-04-03T05:40:14.834Z,99.99
2019-04-03T05:41:15.039Z,99.99
2019-04-03T05:42:15.178Z,99.51
2019-04-03T05:43:15.352Z,99.41
2019-04-03T05:44:15.521Z,99.79
2019-04-03T05:45:15.790Z,99.99
2019-04-03T05:46:16.766Z,99.99
2019-04-03T05:47:16.052Z,99.99
2019-04-03T05:48:17.658Z,99.99
2019-04-03T05:49:18.611Z,99.99
2019-04-03T05:50:16.612Z,99.99
2019-04-03T05:51:16.923Z,99.99
2019-04-03T05:52:17.101Z,99.99
2019-04-03T05:53:17.080Z,99.99
2019-04-03T05:54:17.252Z,99.99
2019-04-03T05:55:17.434Z,99.99
2019-04-03T05:56:17.599Z,99.99
2019-04-03T05:57:17.770Z,99.99
2019-04-03T05:58:17.952Z,99.99
2019-04-03T05:59:18.125Z,99.99
2019-04-03T06:00:18.402Z,99.99
2019-04-03T06:01:18.474Z,99.99
2019-04-03T06:02:21.377Z,99.99
2019-04-03T06:03:18.983Z,99.99
2019-04-03T06:04:18.985Z,99.99
2019-04-03T06:05:19.601Z,99.99
2019-04-03T06:06:19.329Z,99.99
2019-04-03T06:07:19.501Z,99.99
2019-04-03T06:08:20.031Z,99.99
2019-04-03T06:09:20.086Z,99.99
2019-04-03T06:10:20.025Z,99.99
2019-04-03T06:11:20.841Z,99.99
2019-04-03T06:12:20.367Z,99.99
2019-04-03T06:13:20.550Z,99.99
2019-04-03T06:14:23.090Z,99.99
2019-04-03T06:15:22.055Z,99.99
2019-04-03T06:16:23.419Z,99.99
2019-04-03T06:17:21.228Z,99.99
2019-04-03T06:18:21.397Z,99.99
2019-04-03T06:19:21.571Z,99.99
2019-04-03T06:20:21.751Z,99.99
2019-04-03T06:21:21.923Z,99.99
2019-04-03T06:22:22.195Z,99.99
2019-04-03T06:23:22.242Z,99.99
2019-04-03T06:24:24.406Z,99.99
2019-04-03T06:25:22.990Z,99.99
2019-04-03T06:26:22.782Z,99.99
2019-04-03T06:27:22.942Z,99.99
2019-04-03T06:28:23.107Z,99.99
2019-04-03T06:29:23.487Z,99.99
2019-04-03T06:30:25.030Z,99.99
2019-04-03T06:31:24.347Z,99.99
2019-04-03T06:32:24.928Z,99.99
2019-04-03T06:33:23.977Z,99.99
2019-04-03T06:34:24.152Z,99.99
2019-04-03T06:35:24.321Z,99.99
2019-04-03T06:36:24.506Z,99.99
2019-04-03T06:37:24.669Z,99.99
2019-04-03T06:38:25.215Z,99.99
2019-04-03T06:39:30.461Z,99.99
2019-04-03T06:40:25.346Z,99.99
2019-04-03T06:41:25.353Z,99.99
2019-04-03T06:42:25.525Z,99.99
2019-04-03T06:43:25.700Z,99.99
2019-04-03T06:44:26.120Z,99.99
2019-04-03T06:45:27.021Z,99.80
2019-04-03T06:46:28.454Z,99.13
2019-04-03T06:47:26.402Z,99.22
2019-04-03T06:48:26.574Z,98.61
2019-04-03T06:49:26.755Z,98.42
2019-04-03T06:50:26.922Z,98.32
2019-04-03T06:51:27.093Z,98.61
2019-04-03T06:52:27.509Z,97.56
2019-04-03T06:53:28.680Z,97.27
2019-04-03T06:54:27.819Z,97.66
2019-04-03T06:55:27.954Z,97.94
2019-04-03T06:56:28.039Z,98.42
2019-04-03T06:57:28.142Z,98.70
2019-04-03T06:58:37.361Z,97.27
2019-04-03T06:59:28.483Z,97.56
2019-04-03T07:00:28.871Z,97.17
2019-04-03T07:01:28.827Z,96.89
2019-04-03T07:02:31.420Z,96.51
2019-04-03T07:03:29.173Z,96.80
2019-04-03T07:04:29.348Z,97.08
2019-04-03T07:05:29.519Z,97.85
2019-04-03T07:06:29.690Z,97.66
2019-04-03T07:07:34.136Z,97.56
2019-04-03T07:08:34.850Z,97.75
2019-04-03T07:09:35.602Z,97.94
2019-04-03T07:10:30.388Z,97.94
2019-04-03T07:11:30.561Z,98.51
2019-04-03T07:12:30.778Z,99.99
2019-04-03T07:13:30.905Z,99.95
2019-04-03T07:14:31.133Z,99.18
2019-04-03T07:15:31.248Z,99.85
2019-04-03T07:16:31.434Z,99.37
2019-04-03T07:17:32.839Z,99.46
2019-04-03T07:18:31.762Z,99.08
2019-04-03T07:19:32.180Z,99.66
2019-04-03T07:20:32.107Z,99.95
2019-04-03T07:21:32.467Z,99.95
2019-04-03T07:22:32.454Z,99.75
2019-04-03T07:23:32.678Z,99.99
2019-04-03T07:24:32.897Z,99.99
2019-04-03T07:25:33.930Z,99.99
2019-04-03T07:26:35.131Z,99.99
2019-04-03T07:27:34.895Z,99.99
2019-04-03T07:28:33.490Z,99.99
2019-04-03T07:29:33.974Z,99.99
2019-04-03T07:30:33.845Z,99.99
2019-04-03T07:31:34.016Z,99.99
2019-04-03T07:32:34.188Z,99.99
2019-04-03T07:33:34.360Z,99.99
2019-04-03T07:34:34.674Z,99.75
2019-04-03T07:35:34.950Z,98.99
2019-04-03T07:36:34.877Z,99.80
2019-04-03T07:37:35.090Z,99.04
2019-04-03T07:38:35.455Z,99.13
2019-04-03T07:39:35.397Z,99.52
2019-04-03T07:40:35.568Z,98.47
2019-04-03T07:41:35.739Z,98.85
2019-04-03T07:42:35.914Z,97.61
2019-04-03T07:43:36.094Z,97.89
2019-04-03T07:44:36.261Z,98.18
2019-04-03T07:45:36.430Z,97.13
2019-04-03T07:46:36.605Z,97.13
2019-04-03T07:47:36.782Z,96.66
2019-04-03T07:48:37.954Z,95.61
2019-04-03T07:49:37.689Z,95.70
2019-04-03T07:50:37.292Z,95.36
2019-04-03T07:51:37.470Z,94.22
2019-04-03T07:52:37.640Z,93.84
2019-04-03T07:53:37.809Z,95.08
2019-04-03T07:54:38.130Z,95.27
2019-04-03T07:55:38.158Z,95.36
2019-04-03T07:56:38.343Z,95.84
2019-04-03T07:57:40.929Z,95.84
2019-04-03T07:58:38.678Z,94.79
2019-04-03T07:59:38.848Z,94.79
2019-04-03T08:00:39.269Z,94.12
2019-04-03T08:01:41.306Z,93.84
2019-04-03T08:02:39.364Z,94.51
2019-04-03T08:03:39.539Z,95.41
2019-04-03T08:04:39.972Z,95.89
2019-04-03T08:05:39.888Z,95.17
2019-04-03T08:06:40.211Z,95.12
2019-04-03T08:07:40.440Z,95.36
2019-04-03T08:08:40.399Z,95.46
2019-04-03T08:09:40.570Z,97.99
2019-04-03T08:10:40.744Z,98.75
2019-04-03T08:11:41.038Z,97.80
2019-04-03T08:12:41.088Z,97.42
2019-04-03T08:13:41.319Z,95.89
2019-04-03T08:14:42.002Z,96.08
2019-04-03T08:15:43.889Z,96.56
2019-04-03T08:16:43.196Z,96.37
2019-04-03T08:17:41.984Z,95.12
2019-04-03T08:18:42.125Z,96.13
2019-04-03T08:19:44.933Z,96.22
2019-04-03T08:20:42.472Z,97.85
2019-04-03T08:21:42.645Z,97.08
2019-04-03T08:22:42.819Z,94.12
2019-04-03T08:23:42.992Z,93.26
2019-04-03T08:24:43.165Z,93.16
2019-04-03T08:25:47.142Z,95.27
2019-04-03T08:26:43.512Z,97.47
2019-04-03T08:27:43.837Z,96.51
2019-04-03T08:28:43.861Z,95.56
2019-04-03T08:29:44.032Z,94.02
2019-04-03T08:30:44.248Z,93.26
2019-04-03T08:31:48.264Z,92.11
2019-04-03T08:32:47.370Z,90.68
2019-04-03T08:33:44.726Z,90.30
2019-04-03T08:34:44.903Z,91.35
2019-04-03T08:35:45.320Z,90.39
2019-04-03T08:36:45.244Z,88.92
2019-04-03T08:37:45.644Z,91.30
2019-04-03T08:38:45.772Z,91.11
2019-04-03T08:39:48.436Z,92.74
2019-04-03T08:40:45.943Z,94.60
2019-04-03T08:41:46.396Z,92.97
2019-04-03T08:42:46.321Z,92.21
2019-04-03T08:43:46.440Z,90.20
2019-04-03T08:44:46.615Z,90.64
2019-04-03T08:45:46.790Z,89.25
2019-04-03T08:46:46.965Z,90.39
2019-04-03T08:47:47.139Z,90.39
2019-04-03T08:48:47.431Z,90.68
2019-04-03T08:49:47.660Z,89.25
2019-04-03T08:50:47.654Z,88.68
2019-04-03T08:51:47.830Z,88.58
2019-04-03T08:52:48.004Z,89.92
2019-04-03T08:53:48.198Z,89.25
2019-04-03T08:54:48.349Z,89.87
2019-04-03T08:55:48.611Z,91.11
2019-04-03T08:56:49.429Z,89.48
2019-04-03T08:57:51.891Z,87.09
2019-04-03T08:58:49.265Z,87.29
2019-04-03T08:59:49.550Z,87.38
2019-04-03T09:00:49.389Z,88.62
2019-04-03T09:01:49.559Z,89.39
2019-04-03T09:02:49.734Z,89.96
2019-04-03T09:03:49.910Z,87.29
2019-04-03T09:04:50.084Z,86.96
2019-04-03T09:05:51.050Z,88.68
2019-04-03T09:06:53.107Z,89.25
2019-04-03T09:07:50.801Z,90.88
2019-04-03T09:08:50.780Z,89.15
2019-04-03T09:09:51.029Z,88.29
2019-04-03T09:10:51.397Z,87.53
2019-04-03T09:11:51.296Z,89.15
2019-04-03T09:12:51.469Z,89.92
2019-04-03T09:13:54.373Z,92.40
2019-04-03T09:14:51.818Z,90.68
2019-04-03T09:15:52.191Z,91.06
2019-04-03T09:16:52.174Z,88.01
2019-04-03T09:17:52.341Z,89.82
2019-04-03T09:18:52.518Z,88.77
2019-04-03T09:19:52.965Z,86.38
2019-04-03T09:20:52.867Z,85.67
2019-04-03T09:21:53.086Z,87.24
2019-04-03T09:22:54.391Z,88.77
2019-04-03T09:23:55.183Z,87.62
2019-04-03T09:24:53.560Z,87.05
2019-04-03T09:25:54.004Z,84.91
2019-04-03T09:26:54.231Z,85.52
2019-04-03T09:27:54.082Z,84.28
2019-04-03T09:28:54.254Z,86.00
2019-04-03T09:29:54.428Z,84.95
2019-04-03T09:30:54.600Z,85.81
2019-04-03T09:31:56.233Z,86.10
2019-04-03T09:32:55.223Z,84.85
2019-04-03T09:33:56.984Z,83.80
2019-04-03T09:34:55.295Z,83.23
2019-04-03T09:35:58.498Z,84.38
2019-04-03T09:36:55.646Z,84.19
2019-04-03T09:37:55.896Z,83.90
2019-04-03T09:38:55.990Z,83.75
2019-04-03T09:39:56.165Z,82.65
2019-04-03T09:40:56.339Z,81.70
2019-04-03T09:41:56.516Z,82.98
2019-04-03T09:42:56.688Z,81.45
2019-04-03T09:43:56.862Z,81.74
2019-04-03T09:44:57.393Z,83.56
2019-04-03T09:45:59.397Z,83.65
2019-04-03T09:46:57.444Z,84.84
2019-04-03T09:47:57.572Z,81.88
2019-04-03T09:48:57.997Z,82.01
2019-04-03T09:49:57.956Z,83.73
2019-04-03T09:50:58.096Z,82.97
2019-04-03T09:51:58.267Z,80.58
2019-04-03T09:52:58.443Z,84.69
2019-04-03T09:53:58.617Z,84.31
2019-04-03T09:55:00.292Z,80.33
2019-04-03T09:55:59.085Z,79.57
2019-04-03T09:57:04.474Z,78.51
2019-04-03T09:57:59.313Z,78.93
2019-04-03T09:58:59.485Z,78.89
2019-04-03T09:59:59.662Z,79.03
2019-04-03T10:00:59.837Z,77.78
2019-04-03T10:02:00.174Z,79.18
2019-04-03T10:03:00.187Z,77.84
2019-04-03T10:04:00.363Z,76.40
2019-04-03T10:05:00.536Z,75.58
2019-04-03T10:06:00.853Z,75.68
2019-04-03T10:07:02.028Z,77.88
2019-04-03T10:08:01.059Z,77.46
2019-04-03T10:09:01.231Z,79.60
2019-04-03T10:10:01.832Z,79.28
2019-04-03T10:11:01.583Z,77.26
2019-04-03T10:12:02.044Z,78.57
2019-04-03T10:13:02.080Z,78.95
2019-04-03T10:14:02.109Z,79.05
2019-04-03T10:15:02.281Z,80.10
2019-04-03T10:16:03.957Z,80.10
2019-04-03T10:17:03.900Z,79.81
2019-04-03T10:18:03.054Z,78.95
2019-04-03T10:19:02.979Z,78.57
2019-04-03T10:20:03.155Z,78.66
2019-04-03T10:21:03.349Z,78.99
2019-04-03T10:22:03.511Z,77.65
2019-04-03T10:23:03.676Z,76.79
2019-04-03T10:24:03.849Z,75.87
2019-04-03T10:25:05.499Z,76.15
2019-04-03T10:26:05.921Z,78.88
2019-04-03T10:27:04.373Z,80.22
2019-04-03T10:28:04.547Z,76.67
2019-04-03T10:29:04.854Z,73.32
2019-04-03T10:30:05.225Z,74.47
2019-04-03T10:31:05.070Z,73.38
2019-04-03T10:32:05.248Z,74.72
2019-04-03T10:33:05.636Z,73.28
2019-04-03T10:34:05.596Z,73.28
2019-04-03T10:35:07.290Z,73.54
2019-04-03T10:36:05.945Z,73.91
2019-04-03T10:37:06.127Z,75.07
2019-04-03T10:38:06.340Z,73.34
2019-04-03T10:39:06.472Z,73.50
2019-04-03T10:40:06.904Z,74.74
2019-04-03T10:41:06.818Z,74.93
2019-04-03T10:42:06.996Z,73.40
2019-04-03T10:43:07.163Z,75.12
2019-04-03T10:44:09.292Z,73.46
2019-04-03T10:45:07.512Z,73.75
2019-04-03T10:46:07.690Z,74.32
2019-04-03T10:47:07.952Z,75.09
2019-04-03T10:48:08.038Z,74.41
2019-04-03T10:49:08.503Z,75.47
2019-04-03T10:50:08.388Z,75.27
2019-04-03T10:51:09.301Z,75.09
2019-04-03T10:52:08.733Z,74.28
2019-04-03T10:53:08.908Z,74.48
2019-04-03T10:54:09.083Z,74.48
2019-04-03T10:55:09.261Z,74.95
2019-04-03T10:56:09.429Z,74.32
2019-04-03T10:57:09.711Z,74.66
2019-04-03T10:58:09.914Z,74.66
2019-04-03T10:59:12.993Z,74.19
2019-04-03T11:00:10.216Z,74.85
2019-04-03T11:01:10.298Z,74.85
2019-04-03T11:02:10.469Z,75.52
2019-04-03T11:03:10.889Z,74.85
2019-04-03T11:04:11.079Z,75.24
2019-04-03T11:05:10.996Z,75.56
2019-04-03T11:06:11.308Z,75.43
2019-04-03T11:07:11.341Z,74.66
2019-04-03T11:08:11.540Z,75.18
2019-04-03T11:09:11.689Z,74.61
2019-04-03T11:10:11.960Z,75.47
2019-04-03T11:11:12.033Z,74.32
2019-04-03T11:12:12.582Z,75.18
2019-04-03T11:13:12.380Z,74.45
2019-04-03T11:14:12.553Z,75.41
2019-04-03T11:15:12.820Z,72.92
2019-04-03T11:16:13.181Z,72.92
2019-04-03T11:17:13.348Z,73.40
2019-04-03T11:18:13.248Z,74.45
2019-04-03T11:19:13.420Z,73.69
2019-04-03T11:20:14.061Z,73.30
2019-04-03T11:21:13.766Z,71.87
2019-04-03T11:22:16.267Z,72.16
2019-04-03T11:23:14.202Z,73.11
2019-04-03T11:24:14.675Z,72.60
2019-04-03T11:25:15.937Z,75.98
2019-04-03T11:26:17.644Z,75.89
2019-04-03T11:27:15.298Z,75.98
2019-04-03T11:28:14.993Z,76.27
2019-04-03T11:29:15.192Z,75.22
2019-04-03T11:30:19.032Z,74.16
2019-04-03T11:31:25.940Z,73.15
2019-04-03T11:32:15.678Z,71.33
2019-04-03T11:33:15.936Z,72.86
2019-04-03T11:34:18.028Z,71.52
2019-04-03T11:35:16.407Z,71.58
2019-04-03T11:36:16.543Z,71.11
2019-04-03T11:37:16.552Z,70.43
2019-04-03T11:38:26.286Z,71.30
2019-04-03T11:39:16.922Z,71.30
2019-04-03T11:40:18.150Z,70.91
2019-04-03T11:41:19.596Z,71.36
2019-04-03T11:42:24.040Z,71.07
2019-04-03T11:43:17.595Z,70.59
2019-04-03T11:44:17.856Z,70.68
2019-04-03T11:45:18.167Z,70.59
2019-04-03T11:46:18.114Z,71.55
2019-04-03T11:47:18.289Z,72.02
2019-04-03T11:48:18.467Z,71.73
2019-04-03T11:49:20.038Z,72.47
2019-04-03T11:50:18.809Z,72.08
2019-04-03T11:51:18.983Z,73.23
2019-04-03T11:52:19.158Z,73.43
2019-04-03T11:53:19.329Z,73.14
2019-04-03T11:54:19.588Z,72.18
2019-04-03T11:55:19.889Z,72.94
2019-04-03T11:56:19.857Z,73.23
2019-04-03T11:57:20.023Z,74.63
2019-04-03T11:58:21.314Z,74.63
2019-04-03T11:59:22.711Z,74.63
2019-04-03T12:00:20.893Z,76.25
2019-04-03T12:01:20.786Z,78.45
2019-04-03T12:02:20.894Z,78.64
2019-04-03T12:03:21.067Z,78.36
2019-04-03T12:04:21.284Z,78.26
2019-04-03T12:05:21.635Z,78.26
2019-04-03T12:06:21.958Z,79.31
2019-04-03T12:07:22.873Z,79.31
2019-04-03T12:08:21.931Z,79.64
2019-04-03T12:09:22.107Z,79.54
2019-04-03T12:10:24.899Z,78.58
2019-04-03T12:11:22.682Z,78.39
2019-04-03T12:12:22.651Z,77.34
2019-04-03T12:13:22.870Z,76.04
2019-04-03T12:14:22.973Z,74.55
2019-04-03T12:15:23.144Z,73.05
2019-04-03T12:16:25.222Z,71.75
2019-04-03T12:17:23.492Z,70.06
2019-04-03T12:18:24.039Z,67.25
2019-04-03T12:19:23.926Z,66.80
2019-04-03T12:20:24.054Z,65.88
2019-04-03T12:21:24.506Z,63.89
2019-04-03T12:22:24.360Z,63.67
2019-04-03T12:23:26.913Z,62.35
2019-04-03T12:24:25.109Z,63.06
2019-04-03T12:25:25.237Z,63.06
2019-04-03T12:26:25.365Z,60.49
2019-04-03T12:27:25.246Z,59.44
2019-04-03T12:28:25.414Z,59.31
2019-04-03T12:29:25.591Z,59.79
2019-04-03T12:30:26.857Z,58.86
2019-04-03T12:31:25.944Z,59.56
2019-04-03T12:32:36.641Z,58.02
2019-04-03T12:33:26.568Z,58.02
2019-04-03T12:34:26.461Z,58.82
2019-04-03T12:35:26.639Z,56.80
2019-04-03T12:36:27.810Z,58.09
2019-04-03T12:37:26.991Z,57.90
2019-04-03T12:38:27.173Z,59.24
2019-04-03T12:39:28.095Z,58.15
2019-04-03T12:40:27.524Z,59.12
2019-04-03T12:41:28.011Z,61.61
2019-04-03T12:42:27.901Z,61.52
2019-04-03T12:43:28.050Z,60.91
2019-04-03T12:44:28.226Z,59.52
2019-04-03T12:45:28.405Z,56.92
2019-04-03T12:46:28.580Z,56.41
2019-04-03T12:47:28.755Z,55.00
2019-04-03T12:48:29.244Z,54.06
2019-04-03T12:49:29.108Z,56.18
2019-04-03T12:50:29.286Z,55.16
2019-04-03T12:51:31.570Z,55.07
2019-04-03T12:52:29.763Z,55.59
2019-04-03T12:53:30.242Z,57.68
2019-04-03T12:54:30.214Z,58.03
2019-04-03T12:55:30.296Z,59.22
2019-04-03T12:56:30.953Z,61.81
2019-04-03T12:57:32.390Z,63.22
2019-04-03T12:58:31.084Z,63.51
2019-04-03T12:59:30.882Z,62.74
2019-04-03T13:00:31.057Z,63.32
2019-04-03T13:01:31.233Z,63.79
2019-04-03T13:02:31.519Z,63.42
2019-04-03T13:03:31.965Z,63.89
2019-04-03T13:04:32.807Z,64.28
2019-04-03T13:05:32.278Z,64.76
2019-04-03T13:06:32.522Z,64.09
2019-04-03T13:07:32.853Z,62.74
2019-04-03T13:08:32.863Z,62.48
2019-04-03T13:09:33.025Z,61.84
2019-04-03T13:10:40.974Z,60.98
2019-04-03T13:11:33.970Z,62.29
2019-04-03T13:12:33.769Z,61.17
2019-04-03T13:13:33.732Z,60.60
2019-04-03T13:14:33.579Z,61.94
2019-04-03T13:15:36.240Z,61.81
2019-04-03T13:16:33.877Z,61.81
2019-04-03T13:17:34.050Z,62.45
2019-04-03T13:18:34.225Z,63.60
2019-04-03T13:19:34.399Z,63.60
2019-04-03T13:20:36.673Z,63.12
2019-04-03T13:21:34.975Z,63.86
2019-04-03T13:22:34.926Z,66.64
2019-04-03T13:23:35.570Z,68.66
2019-04-03T13:24:35.275Z,67.38
2019-04-03T13:25:35.450Z,66.35
2019-04-03T13:26:35.928Z,66.03
2019-04-03T13:27:36.125Z,67.09
2019-04-03T13:28:39.488Z,67.28
2019-04-03T13:29:38.313Z,66.13
2019-04-03T13:30:36.324Z,66.03
2019-04-03T13:31:36.494Z,66.13
2019-04-03T13:32:37.057Z,67.25
2019-04-03T13:33:38.724Z,67.28
2019-04-03T13:34:37.203Z,66.61
2019-04-03T13:35:37.193Z,66.13
2019-04-03T13:36:37.735Z,65.26
2019-04-03T13:37:37.717Z,64.53
2019-04-03T13:38:38.138Z,64.56
2019-04-03T13:39:38.305Z,64.85
2019-04-03T13:40:39.038Z,66.10
2019-04-03T13:41:39.968Z,66.96
2019-04-03T13:42:38.681Z,63.35
2019-04-03T13:43:38.992Z,61.91
2019-04-03T13:44:38.768Z,61.65
2019-04-03T13:45:39.039Z,62.52
2019-04-03T13:46:39.116Z,61.62
2019-04-03T13:47:41.500Z,61.75
2019-04-03T13:48:39.693Z,62.90
2019-04-03T13:49:39.920Z,62.13
2019-04-03T13:50:40.152Z,63.83
2019-04-03T13:51:39.988Z,63.51
2019-04-03T13:52:43.605Z,65.52
2019-04-03T13:53:40.336Z,64.85
2019-04-03T13:54:40.511Z,63.79
2019-04-03T13:55:40.846Z,64.66
2019-04-03T13:56:43.104Z,64.79
2019-04-03T13:57:41.033Z,64.12
2019-04-03T13:58:41.645Z,64.50
2019-04-03T13:59:41.527Z,63.92
2019-04-03T14:00:41.560Z,63.19
2019-04-03T14:01:41.817Z,62.99
2019-04-03T14:02:45.009Z,61.74
2019-04-03T14:03:42.124Z,62.83
2019-04-03T14:04:42.348Z,59.97
2019-04-03T14:05:43.453Z,58.15
2019-04-03T14:06:42.975Z,57.24
2019-04-03T14:07:42.794Z,56.21
2019-04-03T14:08:45.088Z,55.66
2019-04-03T14:09:43.143Z,54.53
2019-04-03T14:10:43.319Z,53.56
2019-04-03T14:11:43.499Z,52.31
2019-04-03T14:12:45.182Z,52.21
2019-04-03T14:13:44.428Z,52.50
2019-04-03T14:14:45.243Z,52.72
2019-04-03T14:15:44.199Z,51.65
2019-04-03T14:16:44.403Z,49.92
2019-04-03T14:17:55.317Z,50.64
2019-04-03T14:18:44.731Z,53.03
2019-04-03T14:19:48.429Z,53.48
2019-04-03T14:20:45.089Z,53.87
2019-04-03T14:21:45.264Z,55.07
2019-04-03T14:22:45.447Z,55.00
2019-04-03T14:23:45.624Z,55.09
2019-04-03T14:24:50.990Z,56.70
2019-04-03T14:25:45.976Z,57.21
2019-04-03T14:26:46.551Z,55.51
2019-04-03T14:27:46.497Z,56.05
2019-04-03T14:28:46.513Z,54.16
2019-04-03T14:29:46.689Z,54.42
2019-04-03T14:30:46.961Z,56.12
2019-04-03T14:31:48.619Z,58.22
2019-04-03T14:32:47.494Z,59.15
2019-04-03T14:33:47.765Z,58.73
2019-04-03T14:34:47.913Z,58.80
2019-04-03T14:35:52.641Z,58.89
2019-04-03T14:36:50.127Z,59.47
2019-04-03T14:37:48.131Z,60.40
2019-04-03T14:38:48.300Z,60.88
2019-04-03T14:39:48.722Z,61.81
2019-04-03T14:40:48.664Z,63.16
2019-04-03T14:41:48.901Z,63.45
2019-04-03T14:42:49.045Z,63.45
2019-04-03T14:43:49.231Z,63.35
2019-04-03T14:44:49.408Z,63.83
2019-04-03T14:45:49.596Z,64.98
2019-04-03T14:46:50.646Z,64.79
2019-04-03T14:47:49.966Z,62.87
2019-04-03T14:48:50.484Z,63.16
2019-04-03T14:49:50.321Z,64.79
2019-04-03T14:50:50.806Z,65.08
2019-04-03T14:51:50.687Z,64.59
2019-04-03T14:52:50.853Z,65.23
2019-04-03T14:53:52.675Z,64.56
2019-04-03T14:54:51.617Z,63.54
2019-04-03T14:55:51.380Z,63.64
2019-04-03T14:56:51.558Z,61.84
2019-04-03T14:57:53.776Z,60.85
2019-04-03T14:58:51.905Z,60.27
2019-04-03T14:59:52.093Z,59.72
2019-04-03T15:00:52.257Z,57.90
2019-04-03T15:01:52.822Z,58.18
2019-04-03T15:02:53.122Z,59.57
2019-04-03T15:03:52.781Z,60.72
2019-04-03T15:04:53.291Z,61.08
2019-04-03T15:05:53.463Z,61.05
2019-04-03T15:07:02.046Z,62.96
2019-04-03T15:07:53.909Z,63.70
2019-04-03T15:08:54.722Z,65.14
2019-04-03T15:09:53.833Z,64.92
2019-04-03T15:10:54.008Z,66.16
2019-04-03T15:11:54.604Z,66.64
2019-04-03T15:12:54.705Z,67.22
2019-04-03T15:13:54.534Z,66.55
2019-04-03T15:14:55.600Z,66.16
2019-04-03T15:15:54.883Z,66.64
2019-04-03T15:16:55.206Z,66.13
2019-04-03T15:17:55.230Z,66.13
2019-04-03T15:18:55.766Z,65.91
2019-04-03T15:19:56.700Z,64.12
2019-04-03T15:20:55.759Z,63.38
2019-04-03T15:21:57.956Z,61.78
2019-04-03T15:22:56.461Z,61.68
2019-04-03T15:23:56.584Z,61.78
2019-04-03T15:24:56.458Z,60.85
2019-04-03T15:25:56.757Z,61.23
2019-04-03T15:26:56.821Z,60.17
2019-04-03T15:27:58.695Z,60.66
2019-04-03T15:28:57.172Z,61.40
2019-04-03T15:29:57.729Z,61.58
2019-04-03T15:30:57.521Z,63.38
2019-04-03T15:31:58.057Z,63.54
2019-04-03T15:32:57.983Z,64.28
2019-04-03T15:33:58.253Z,65.49
2019-04-03T15:34:59.757Z,67.09
2019-04-03T15:35:58.695Z,67.91
2019-04-03T15:36:58.728Z,69.54
2019-04-03T15:37:58.749Z,69.93
2019-04-03T15:38:59.871Z,70.41
2019-04-03T15:39:59.284Z,70.47
2019-04-03T15:40:59.834Z,71.14
2019-04-03T15:41:59.736Z,70.95
2019-04-03T15:42:59.619Z,71.33
2019-04-03T15:43:59.794Z,71.14
2019-04-03T15:44:59.979Z,71.23
2019-04-03T15:46:00.156Z,71.62
2019-04-03T15:47:01.256Z,71.42
2019-04-03T15:48:00.493Z,70.89
2019-04-03T15:49:00.948Z,71.27
2019-04-03T15:50:00.840Z,70.98
2019-04-03T15:51:01.017Z,70.79
2019-04-03T15:52:01.557Z,70.70
2019-04-03T15:53:01.386Z,70.31
2019-04-03T15:54:01.551Z,70.79
2019-04-03T15:55:03.731Z,71.37
2019-04-03T15:56:01.917Z,70.31
2019-04-03T15:57:02.133Z,70.98
2019-04-03T15:58:02.722Z,71.08
2019-04-03T15:59:02.947Z,71.33
2019-04-03T16:00:03.552Z,71.23
2019-04-03T16:01:02.843Z,71.14
2019-04-03T16:02:03.030Z,71.91
2019-04-03T16:03:03.192Z,72.03
2019-04-03T16:04:03.429Z,71.62
2019-04-03T16:05:04.103Z,71.52
2019-04-03T16:06:04.724Z,71.46
2019-04-03T16:07:06.753Z,71.08
2019-04-03T16:08:04.166Z,70.79
2019-04-03T16:09:04.261Z,70.50
2019-04-03T16:10:04.845Z,70.15
2019-04-03T16:11:04.902Z,69.68
2019-04-03T16:12:06.276Z,69.48
2019-04-03T16:13:05.525Z,70.06
2019-04-03T16:14:05.191Z,70.06
2019-04-03T16:15:05.358Z,70.12
2019-04-03T16:16:05.534Z,70.60
2019-04-03T16:17:05.710Z,71.17
2019-04-03T16:18:07.698Z,71.17
2019-04-03T16:19:06.453Z,71.17
2019-04-03T16:20:06.237Z,71.46
2019-04-03T16:21:06.411Z,71.62
2019-04-03T16:22:06.925Z,71.62
2019-04-03T16:23:07.041Z,71.81
2019-04-03T16:24:11.255Z,71.42
2019-04-03T16:25:07.103Z,72.67
2019-04-03T16:26:07.282Z,72.00
2019-04-03T16:27:08.453Z,72.09
2019-04-03T16:28:07.632Z,72.86
2019-04-03T16:29:08.744Z,72.77
2019-04-03T16:30:08.342Z,72.38
2019-04-03T16:31:08.157Z,72.48
2019-04-03T16:32:08.336Z,72.63
2019-04-03T16:33:18.839Z,72.58
2019-04-03T16:34:12.172Z,72.92
2019-04-03T16:35:08.859Z,73.02
2019-04-03T16:36:09.032Z,73.91
2019-04-03T16:37:09.420Z,74.65
2019-04-03T16:38:09.380Z,73.79
2019-04-03T16:39:09.563Z,73.02
2019-04-03T16:40:10.098Z,73.50
2019-04-03T16:41:11.015Z,73.50
2019-04-03T16:42:10.078Z,74.07
2019-04-03T16:43:10.322Z,74.45
2019-04-03T16:44:10.423Z,74.36
2019-04-03T16:45:10.670Z,74.84
2019-04-03T16:46:11.650Z,74.45
2019-04-03T16:47:13.022Z,74.45
2019-04-03T16:48:11.193Z,74.36
2019-04-03T16:49:11.298Z,74.26
2019-04-03T16:50:11.472Z,74.74
2019-04-03T16:51:11.651Z,75.31
2019-04-03T16:52:11.827Z,75.27
2019-04-03T16:53:12.003Z,75.85
2019-04-03T16:54:12.765Z,75.95
2019-04-03T16:55:13.867Z,76.04